sensor_id;sensor_type;location;lat;lon;timestamp;temperature;humidity
39103;DHT22;24847;48.218;16.414;2022-10-16T00:04:50;12.50;99.90
39103;DHT22;24847;48.218;16.414;2022-10-16T00:09:52;12.50;99.90
39103;DHT22;24847;48.218;16.414;2022-10-16T00:14:55;12.50;99.90
39103;DHT22;24847;48.218;16.414;2022-10-16T00:20:00;12.50;99.90
39103;DHT22;24847;48.218;16.414;2022-10-16T00:25:03;12.60;99.90
39103;DHT22;24847;48.218;16.414;2022-10-16T00:30:09;12.50;99.90
39103;DHT22;24847;48.218;16.414;2022-10-16T00:35:12;12.20;99.90
39103;DHT22;24847;48.218;16.414;2022-10-16T00:40:20;12.20;99.90
39103;DHT22;24847;48.218;16.414;2022-10-16T00:45:26;12.20;99.90
39103;DHT22;24847;48.218;16.414;2022-10-16T00:50:31;12.20;99.90
39103;DHT22;24847;48.218;16.414;2022-10-16T00:55:34;12.20;99.90
39103;DHT22;24847;48.218;16.414;2022-10-16T01:00:39;12.40;99.90
39103;DHT22;24847;48.218;16.414;2022-10-16T01:05:45;12.30;99.90
39103;DHT22;24847;48.218;16.414;2022-10-16T01:10:57;12.50;99.90
39103;DHT22;24847;48.218;16.414;2022-10-16T01:16:07;12.30;99.90
39103;DHT22;24847;48.218;16.414;2022-10-16T01:21:17;12.40;99.90
39103;DHT22;24847;48.218;16.414;2022-10-16T01:26:36;12.40;99.90
39103;DHT22;24847;48.218;16.414;2022-10-16T01:32:13;12.40;99.90
39103;DHT22;24847;48.218;16.414;2022-10-16T01:37:27;12.40;99.90
39103;DHT22;24847;48.218;16.414;2022-10-16T01:42:36;12.40;99.90
39103;DHT22;24847;48.218;16.414;2022-10-16T01:47:41;12.40;99.90
39103;DHT22;24847;48.218;16.414;2022-10-16T01:52:46;12.30;99.90
39103;DHT22;24847;48.218;16.414;2022-10-16T01:57:51;12.30;99.90
39103;DHT22;24847;48.218;16.414;2022-10-16T02:03:01;12.30;99.90
39103;DHT22;24847;48.218;16.414;2022-10-16T02:08:04;12.30;99.90
39103;DHT22;24847;48.218;16.414;2022-10-16T02:13:11;12.20;99.90
39103;DHT22;24847;48.218;16.414;2022-10-16T02:18:16;12.10;99.90
39103;DHT22;24847;48.218;16.414;2022-10-16T02:23:24;12.20;99.90
39103;DHT22;24847;48.218;16.414;2022-10-16T02:28:35;12.30;99.90
39103;DHT22;24847;48.218;16.414;2022-10-16T02:33:46;12.20;99.90
39103;DHT22;24847;48.218;16.414;2022-10-16T02:38:48;12.30;99.90
39103;DHT22;24847;48.218;16.414;2022-10-16T02:43:51;12.30;99.90
39103;DHT22;24847;48.218;16.414;2022-10-16T02:49:00;12.30;99.90
39103;DHT22;24847;48.218;16.414;2022-10-16T02:54:03;12.30;99.90
39103;DHT22;24847;48.218;16.414;2022-10-16T02:59:06;12.40;99.90
39103;DHT22;24847;48.218;16.414;2022-10-16T03:04:09;12.20;99.90
39103;DHT22;24847;48.218;16.414;2022-10-16T03:09:12;12.00;99.90
39103;DHT22;24847;48.218;16.414;2022-10-16T03:14:14;11.90;99.90
39103;DHT22;24847;48.218;16.414;2022-10-16T03:19:20;11.80;99.90
39103;DHT22;24847;48.218;16.414;2022-10-16T03:24:22;11.70;99.90
39103;DHT22;24847;48.218;16.414;2022-10-16T03:29:25;11.80;99.90
39103;DHT22;24847;48.218;16.414;2022-10-16T03:34:29;12.00;99.90
39103;DHT22;24847;48.218;16.414;2022-10-16T03:39:32;12.00;99.90
39103;DHT22;24847;48.218;16.414;2022-10-16T03:44:34;12.00;99.90
39103;DHT22;24847;48.218;16.414;2022-10-16T03:49:38;12.00;99.90
39103;DHT22;24847;48.218;16.414;2022-10-16T03:54:40;12.00;99.90
39103;DHT22;24847;48.218;16.414;2022-10-16T03:59:43;11.90;99.90
39103;DHT22;24847;48.218;16.414;2022-10-16T04:04:46;11.80;99.90
39103;DHT22;24847;48.218;16.414;2022-10-16T04:09:49;11.90;99.90
39103;DHT22;24847;48.218;16.414;2022-10-16T04:14:52;11.80;99.90
39103;DHT22;24847;48.218;16.414;2022-10-16T04:19:56;11.80;99.90
39103;DHT22;24847;48.218;16.414;2022-10-16T04:24:58;11.80;99.90
39103;DHT22;24847;48.218;16.414;2022-10-16T04:30:04;11.80;99.90
39103;DHT22;24847;48.218;16.414;2022-10-16T04:35:08;11.70;99.90
39103;DHT22;24847;48.218;16.414;2022-10-16T04:40:11;11.70;99.90
39103;DHT22;24847;48.218;16.414;2022-10-16T04:45:13;11.60;99.90
39103;DHT22;24847;48.218;16.414;2022-10-16T04:50:20;11.60;99.90
39103;DHT22;24847;48.218;16.414;2022-10-16T04:55:23;11.60;99.90
39103;DHT22;24847;48.218;16.414;2022-10-16T05:00:28;11.30;99.90
39103;DHT22;24847;48.218;16.414;2022-10-16T05:05:31;11.30;99.90
39103;DHT22;24847;48.218;16.414;2022-10-16T05:10:34;11.30;99.90
39103;DHT22;24847;48.218;16.414;2022-10-16T05:15:39;11.20;99.90
39103;DHT22;24847;48.218;16.414;2022-10-16T05:20:42;11.40;99.90
39103;DHT22;24847;48.218;16.414;2022-10-16T05:25:52;11.40;99.90
39103;DHT22;24847;48.218;16.414;2022-10-16T05:30:56;11.40;99.90
39103;DHT22;24847;48.218;16.414;2022-10-16T05:36:02;11.40;99.90
39103;DHT22;24847;48.218;16.414;2022-10-16T05:41:05;11.50;99.90
39103;DHT22;24847;48.218;16.414;2022-10-16T05:46:08;11.50;99.90
39103;DHT22;24847;48.218;16.414;2022-10-16T05:51:13;11.50;99.90
39103;DHT22;24847;48.218;16.414;2022-10-16T05:56:18;11.60;99.90
39103;DHT22;24847;48.218;16.414;2022-10-16T06:01:21;11.50;99.90
39103;DHT22;24847;48.218;16.414;2022-10-16T06:06:27;11.60;99.90
39103;DHT22;24847;48.218;16.414;2022-10-16T06:11:34;11.60;99.90
39103;DHT22;24847;48.218;16.414;2022-10-16T06:16:37;11.80;99.90
39103;DHT22;24847;48.218;16.414;2022-10-16T06:21:46;11.70;99.90
39103;DHT22;24847;48.218;16.414;2022-10-16T06:26:51;11.80;99.90
39103;DHT22;24847;48.218;16.414;2022-10-16T06:31:55;11.80;99.90
39103;DHT22;24847;48.218;16.414;2022-10-16T06:36:58;11.90;99.90
39103;DHT22;24847;48.218;16.414;2022-10-16T06:42:04;11.70;99.90
39103;DHT22;24847;48.218;16.414;2022-10-16T06:47:06;11.80;99.90
39103;DHT22;24847;48.218;16.414;2022-10-16T06:52:10;11.90;99.90
39103;DHT22;24847;48.218;16.414;2022-10-16T06:57:14;11.80;99.90
39103;DHT22;24847;48.218;16.414;2022-10-16T07:02:16;11.90;99.90
39103;DHT22;24847;48.218;16.414;2022-10-16T07:07:20;11.90;99.90
39103;DHT22;24847;48.218;16.414;2022-10-16T07:12:26;12.00;99.90
39103;DHT22;24847;48.218;16.414;2022-10-16T07:17:28;12.00;99.90
39103;DHT22;24847;48.218;16.414;2022-10-16T07:22:33;12.10;99.90
39103;DHT22;24847;48.218;16.414;2022-10-16T07:27:35;12.10;99.90
39103;DHT22;24847;48.218;16.414;2022-10-16T07:32:37;12.10;99.90
39103;DHT22;24847;48.218;16.414;2022-10-16T07:37:44;12.20;99.90
39103;DHT22;24847;48.218;16.414;2022-10-16T07:42:48;12.30;99.90
39103;DHT22;24847;48.218;16.414;2022-10-16T07:47:51;12.20;99.90
39103;DHT22;24847;48.218;16.414;2022-10-16T07:52:54;12.30;99.90
39103;DHT22;24847;48.218;16.414;2022-10-16T07:57:57;12.30;99.90
39103;DHT22;24847;48.218;16.414;2022-10-16T08:03:00;12.20;99.90
39103;DHT22;24847;48.218;16.414;2022-10-16T08:08:03;12.30;99.90
39103;DHT22;24847;48.218;16.414;2022-10-16T08:13:09;12.50;99.90
39103;DHT22;24847;48.218;16.414;2022-10-16T08:18:14;12.50;99.90
39103;DHT22;24847;48.218;16.414;2022-10-16T08:23:18;12.50;99.90
39103;DHT22;24847;48.218;16.414;2022-10-16T08:28:21;12.70;99.90
39103;DHT22;24847;48.218;16.414;2022-10-16T08:33:24;12.60;99.90
39103;DHT22;24847;48.218;16.414;2022-10-16T08:38:28;12.60;99.90
39103;DHT22;24847;48.218;16.414;2022-10-16T08:43:43;12.70;99.90
39103;DHT22;24847;48.218;16.414;2022-10-16T08:48:58;12.70;99.90
39103;DHT22;24847;48.218;16.414;2022-10-16T08:54:04;12.90;99.90
39103;DHT22;24847;48.218;16.414;2022-10-16T08:59:10;12.90;99.90
39103;DHT22;24847;48.218;16.414;2022-10-16T09:04:42;12.90;99.90
39103;DHT22;24847;48.218;16.414;2022-10-16T09:10:07;12.90;99.90
39103;DHT22;24847;48.218;16.414;2022-10-16T09:15:22;13.00;99.90
39103;DHT22;24847;48.218;16.414;2022-10-16T09:20:34;13.00;99.90
39103;DHT22;24847;48.218;16.414;2022-10-16T09:25:44;13.00;99.90
39103;DHT22;24847;48.218;16.414;2022-10-16T09:30:49;13.10;99.90
39103;DHT22;24847;48.218;16.414;2022-10-16T09:35:56;13.20;99.90
39103;DHT22;24847;48.218;16.414;2022-10-16T09:41:02;13.20;99.90
39103;DHT22;24847;48.218;16.414;2022-10-16T09:46:24;13.40;99.90
39103;DHT22;24847;48.218;16.414;2022-10-16T09:51:30;13.50;99.90
39103;DHT22;24847;48.218;16.414;2022-10-16T09:56:37;13.80;99.90
39103;DHT22;24847;48.218;16.414;2022-10-16T10:01:43;13.70;99.90
39103;DHT22;24847;48.218;16.414;2022-10-16T10:06:53;14.10;99.90
39103;DHT22;24847;48.218;16.414;2022-10-16T10:11:58;14.20;99.90
39103;DHT22;24847;48.218;16.414;2022-10-16T10:17:14;14.50;99.90
39103;DHT22;24847;48.218;16.414;2022-10-16T10:22:30;14.80;99.90
39103;DHT22;24847;48.218;16.414;2022-10-16T10:27:42;15.00;99.90
39103;DHT22;24847;48.218;16.414;2022-10-16T10:32:58;15.60;99.90
39103;DHT22;24847;48.218;16.414;2022-10-16T10:38:25;15.80;99.90
39103;DHT22;24847;48.218;16.414;2022-10-16T10:43:43;16.20;99.90
39103;DHT22;24847;48.218;16.414;2022-10-16T10:49:11;16.80;99.90
39103;DHT22;24847;48.218;16.414;2022-10-16T10:54:29;17.10;99.90
39103;DHT22;24847;48.218;16.414;2022-10-16T11:00:00;17.40;99.90
39103;DHT22;24847;48.218;16.414;2022-10-16T11:05:20;17.90;99.90
39103;DHT22;24847;48.218;16.414;2022-10-16T11:10:33;18.10;99.90
39103;DHT22;24847;48.218;16.414;2022-10-16T11:15:47;18.10;99.90
39103;DHT22;24847;48.218;16.414;2022-10-16T11:20:53;18.40;99.90
39103;DHT22;24847;48.218;16.414;2022-10-16T11:25:59;18.50;99.90
39103;DHT22;24847;48.218;16.414;2022-10-16T11:31:08;18.50;99.90
39103;DHT22;24847;48.218;16.414;2022-10-16T11:36:21;18.50;99.90
39103;DHT22;24847;48.218;16.414;2022-10-16T11:41:29;18.70;99.90
39103;DHT22;24847;48.218;16.414;2022-10-16T11:46:38;18.90;99.90
39103;DHT22;24847;48.218;16.414;2022-10-16T11:51:51;18.90;99.90
39103;DHT22;24847;48.218;16.414;2022-10-16T11:57:09;19.10;99.90
39103;DHT22;24847;48.218;16.414;2022-10-16T12:02:33;19.10;99.90
39103;DHT22;24847;48.218;16.414;2022-10-16T12:07:47;18.70;99.90
39103;DHT22;24847;48.218;16.414;2022-10-16T12:12:55;18.60;99.90
39103;DHT22;24847;48.218;16.414;2022-10-16T12:18:00;18.70;99.90
39103;DHT22;24847;48.218;16.414;2022-10-16T12:23:04;19.10;99.90
39103;DHT22;24847;48.218;16.414;2022-10-16T12:28:18;18.90;99.90
39103;DHT22;24847;48.218;16.414;2022-10-16T12:33:26;19.00;99.90
39103;DHT22;24847;48.218;16.414;2022-10-16T12:38:37;19.20;99.90
39103;DHT22;24847;48.218;16.414;2022-10-16T12:43:42;19.10;99.90
39103;DHT22;24847;48.218;16.414;2022-10-16T12:48:46;19.00;99.90
39103;DHT22;24847;48.218;16.414;2022-10-16T12:54:00;19.00;99.90
39103;DHT22;24847;48.218;16.414;2022-10-16T12:59:15;18.90;99.90
39103;DHT22;24847;48.218;16.414;2022-10-16T13:10:31;19.10;99.90
39103;DHT22;24847;48.218;16.414;2022-10-16T13:15:48;19.10;99.90
39103;DHT22;24847;48.218;16.414;2022-10-16T13:21:09;19.00;99.90
39103;DHT22;24847;48.218;16.414;2022-10-16T13:26:28;19.00;99.90
39103;DHT22;24847;48.218;16.414;2022-10-16T13:31:40;18.90;99.90
39103;DHT22;24847;48.218;16.414;2022-10-16T13:36:48;18.90;99.90
39103;DHT22;24847;48.218;16.414;2022-10-16T13:42:05;18.70;99.90
39103;DHT22;24847;48.218;16.414;2022-10-16T13:47:16;18.50;99.90
39103;DHT22;24847;48.218;16.414;2022-10-16T13:52:26;18.50;99.90
39103;DHT22;24847;48.218;16.414;2022-10-16T13:57:28;18.50;99.90
39103;DHT22;24847;48.218;16.414;2022-10-16T14:02:33;18.40;99.90
39103;DHT22;24847;48.218;16.414;2022-10-16T14:07:38;18.40;99.90
39103;DHT22;24847;48.218;16.414;2022-10-16T14:12:46;18.30;99.90
39103;DHT22;24847;48.218;16.414;2022-10-16T14:17:58;18.40;99.90
39103;DHT22;24847;48.218;16.414;2022-10-16T14:23:04;18.50;99.90
39103;DHT22;24847;48.218;16.414;2022-10-16T14:28:21;18.40;99.90
39103;DHT22;24847;48.218;16.414;2022-10-16T14:33:31;18.50;99.90
39103;DHT22;24847;48.218;16.414;2022-10-16T14:38:36;18.50;99.90
39103;DHT22;24847;48.218;16.414;2022-10-16T14:43:41;18.40;99.90
39103;DHT22;24847;48.218;16.414;2022-10-16T14:49:00;18.60;99.90
39103;DHT22;24847;48.218;16.414;2022-10-16T14:54:07;18.40;99.90
39103;DHT22;24847;48.218;16.414;2022-10-16T14:59:19;18.40;99.90
39103;DHT22;24847;48.218;16.414;2022-10-16T15:04:26;18.50;99.90
39103;DHT22;24847;48.218;16.414;2022-10-16T15:09:30;18.20;99.90
39103;DHT22;24847;48.218;16.414;2022-10-16T15:14:32;18.20;99.90
39103;DHT22;24847;48.218;16.414;2022-10-16T15:19:36;18.40;99.90
39103;DHT22;24847;48.218;16.414;2022-10-16T15:24:40;18.30;99.90
39103;DHT22;24847;48.218;16.414;2022-10-16T15:29:43;18.20;99.90
39103;DHT22;24847;48.218;16.414;2022-10-16T15:34:48;18.20;99.90
39103;DHT22;24847;48.218;16.414;2022-10-16T15:39:52;18.10;99.90
39103;DHT22;24847;48.218;16.414;2022-10-16T15:44:54;18.00;99.90
39103;DHT22;24847;48.218;16.414;2022-10-16T15:49:59;17.90;99.90
39103;DHT22;24847;48.218;16.414;2022-10-16T15:55:03;17.80;99.90
39103;DHT22;24847;48.218;16.414;2022-10-16T16:00:07;17.80;99.90
39103;DHT22;24847;48.218;16.414;2022-10-16T16:05:11;17.80;99.90
39103;DHT22;24847;48.218;16.414;2022-10-16T16:10:15;17.70;99.90
39103;DHT22;24847;48.218;16.414;2022-10-16T16:15:19;17.70;99.90
39103;DHT22;24847;48.218;16.414;2022-10-16T16:20:25;17.70;99.90
39103;DHT22;24847;48.218;16.414;2022-10-16T16:25:31;17.60;99.90
39103;DHT22;24847;48.218;16.414;2022-10-16T16:30:33;17.50;99.90
39103;DHT22;24847;48.218;16.414;2022-10-16T16:35:36;17.40;99.90
39103;DHT22;24847;48.218;16.414;2022-10-16T16:40:39;17.50;99.90
39103;DHT22;24847;48.218;16.414;2022-10-16T16:45:42;17.40;99.90
39103;DHT22;24847;48.218;16.414;2022-10-16T16:50:45;17.30;99.90
39103;DHT22;24847;48.218;16.414;2022-10-16T16:55:54;17.30;99.90
39103;DHT22;24847;48.218;16.414;2022-10-16T17:00:59;17.20;99.90
39103;DHT22;24847;48.218;16.414;2022-10-16T17:06:07;17.20;99.90
39103;DHT22;24847;48.218;16.414;2022-10-16T17:11:17;17.10;99.90
39103;DHT22;24847;48.218;16.414;2022-10-16T17:16:22;17.10;99.90
39103;DHT22;24847;48.218;16.414;2022-10-16T17:21:27;17.00;99.90
39103;DHT22;24847;48.218;16.414;2022-10-16T17:26:35;17.00;99.90
39103;DHT22;24847;48.218;16.414;2022-10-16T17:31:41;17.00;99.90
39103;DHT22;24847;48.218;16.414;2022-10-16T17:36:48;17.00;99.90
39103;DHT22;24847;48.218;16.414;2022-10-16T17:41:54;16.80;99.90
39103;DHT22;24847;48.218;16.414;2022-10-16T17:46:57;16.60;99.90
39103;DHT22;24847;48.218;16.414;2022-10-16T17:52:01;16.50;99.90
39103;DHT22;24847;48.218;16.414;2022-10-16T17:57:10;16.60;99.90
39103;DHT22;24847;48.218;16.414;2022-10-16T18:02:16;16.60;99.90
39103;DHT22;24847;48.218;16.414;2022-10-16T18:07:20;16.50;99.90
39103;DHT22;24847;48.218;16.414;2022-10-16T18:12:29;16.40;99.90
39103;DHT22;24847;48.218;16.414;2022-10-16T18:17:34;16.40;99.90
39103;DHT22;24847;48.218;16.414;2022-10-16T18:22:46;16.40;99.90
39103;DHT22;24847;48.218;16.414;2022-10-16T18:27:50;16.30;99.90
39103;DHT22;24847;48.218;16.414;2022-10-16T18:32:58;16.10;99.90
39103;DHT22;24847;48.218;16.414;2022-10-16T18:38:01;16.10;99.90
39103;DHT22;24847;48.218;16.414;2022-10-16T18:43:07;16.10;99.90
39103;DHT22;24847;48.218;16.414;2022-10-16T18:48:10;16.20;99.90
39103;DHT22;24847;48.218;16.414;2022-10-16T18:53:15;16.10;99.90
39103;DHT22;24847;48.218;16.414;2022-10-16T18:58:23;16.20;99.90
39103;DHT22;24847;48.218;16.414;2022-10-16T19:03:26;16.30;99.90
39103;DHT22;24847;48.218;16.414;2022-10-16T19:08:35;16.20;99.90
39103;DHT22;24847;48.218;16.414;2022-10-16T19:13:41;16.00;99.90
39103;DHT22;24847;48.218;16.414;2022-10-16T19:18:45;16.10;99.90
39103;DHT22;24847;48.218;16.414;2022-10-16T19:23:51;15.90;99.90
39103;DHT22;24847;48.218;16.414;2022-10-16T19:28:57;15.80;99.90
39103;DHT22;24847;48.218;16.414;2022-10-16T19:34:02;15.60;99.90
39103;DHT22;24847;48.218;16.414;2022-10-16T19:39:11;15.50;99.90
39103;DHT22;24847;48.218;16.414;2022-10-16T19:44:17;15.70;99.90
39103;DHT22;24847;48.218;16.414;2022-10-16T19:49:19;15.70;99.90
39103;DHT22;24847;48.218;16.414;2022-10-16T19:54:25;15.70;99.90
39103;DHT22;24847;48.218;16.414;2022-10-16T19:59:31;15.60;99.90
39103;DHT22;24847;48.218;16.414;2022-10-16T20:04:35;15.50;99.90
39103;DHT22;24847;48.218;16.414;2022-10-16T20:09:38;15.60;99.90
39103;DHT22;24847;48.218;16.414;2022-10-16T20:14:41;15.30;99.90
39103;DHT22;24847;48.218;16.414;2022-10-16T20:19:44;15.40;99.90
39103;DHT22;24847;48.218;16.414;2022-10-16T20:24:50;15.40;99.90
39103;DHT22;24847;48.218;16.414;2022-10-16T20:29:56;15.50;99.90
39103;DHT22;24847;48.218;16.414;2022-10-16T20:34:58;15.30;99.90
39103;DHT22;24847;48.218;16.414;2022-10-16T20:40:01;15.40;99.90
39103;DHT22;24847;48.218;16.414;2022-10-16T20:45:08;15.50;99.90
39103;DHT22;24847;48.218;16.414;2022-10-16T20:50:12;15.40;99.90
39103;DHT22;24847;48.218;16.414;2022-10-16T20:55:16;15.40;99.90
39103;DHT22;24847;48.218;16.414;2022-10-16T21:00:21;15.10;99.90
39103;DHT22;24847;48.218;16.414;2022-10-16T21:05:26;14.90;99.90
39103;DHT22;24847;48.218;16.414;2022-10-16T21:10:38;15.10;99.90
39103;DHT22;24847;48.218;16.414;2022-10-16T21:15:42;15.10;99.90
39103;DHT22;24847;48.218;16.414;2022-10-16T21:20:44;15.10;99.90
39103;DHT22;24847;48.218;16.414;2022-10-16T21:25:50;14.60;99.90
39103;DHT22;24847;48.218;16.414;2022-10-16T21:30:57;14.30;99.90
39103;DHT22;24847;48.218;16.414;2022-10-16T21:36:11;14.50;99.90
39103;DHT22;24847;48.218;16.414;2022-10-16T21:41:17;14.70;99.90
39103;DHT22;24847;48.218;16.414;2022-10-16T21:46:29;14.60;99.90
39103;DHT22;24847;48.218;16.414;2022-10-16T21:51:39;14.60;99.90
39103;DHT22;24847;48.218;16.414;2022-10-16T21:56:42;14.30;99.90
39103;DHT22;24847;48.218;16.414;2022-10-16T22:01:51;14.40;99.90
39103;DHT22;24847;48.218;16.414;2022-10-16T22:06:54;14.30;99.90
39103;DHT22;24847;48.218;16.414;2022-10-16T22:12:01;14.20;99.90
39103;DHT22;24847;48.218;16.414;2022-10-16T22:17:12;14.20;99.90
39103;DHT22;24847;48.218;16.414;2022-10-16T22:22:20;14.00;99.90
39103;DHT22;24847;48.218;16.414;2022-10-16T22:27:24;14.10;99.90
39103;DHT22;24847;48.218;16.414;2022-10-16T22:32:28;14.10;99.90
39103;DHT22;24847;48.218;16.414;2022-10-16T22:37:34;14.20;99.90
39103;DHT22;24847;48.218;16.414;2022-10-16T22:42:37;14.00;99.90
39103;DHT22;24847;48.218;16.414;2022-10-16T22:47:40;14.10;99.90
39103;DHT22;24847;48.218;16.414;2022-10-16T22:52:43;14.10;99.90
39103;DHT22;24847;48.218;16.414;2022-10-16T22:57:48;14.00;99.90
39103;DHT22;24847;48.218;16.414;2022-10-16T23:02:57;14.00;99.90
39103;DHT22;24847;48.218;16.414;2022-10-16T23:08:00;14.10;99.90
39103;DHT22;24847;48.218;16.414;2022-10-16T23:13:02;14.10;99.90
39103;DHT22;24847;48.218;16.414;2022-10-16T23:18:07;14.00;99.90
39103;DHT22;24847;48.218;16.414;2022-10-16T23:23:10;13.80;99.90
39103;DHT22;24847;48.218;16.414;2022-10-16T23:28:13;13.50;99.90
39103;DHT22;24847;48.218;16.414;2022-10-16T23:33:16;13.60;99.90
39103;DHT22;24847;48.218;16.414;2022-10-16T23:38:19;13.50;99.90
39103;DHT22;24847;48.218;16.414;2022-10-16T23:43:21;13.40;99.90
39103;DHT22;24847;48.218;16.414;2022-10-16T23:48:25;13.30;99.90
39103;DHT22;24847;48.218;16.414;2022-10-16T23:53:27;13.30;99.90
39103;DHT22;24847;48.218;16.414;2022-10-16T23:58:29;13.20;99.90
